Portada
METAR-TAF:

METAR-TAF

Aeropuertos :

Castres, Francia

latitud: 43-33-25N, longitud: 2-17-21E, altitud: 239 m

Observación

El informe se hizo hace 21 minutos, a las 04:00 UTC
Viento 6 kt del sureste
Temperatura 20°C
Humedad 94%
Presión 1013 hPa
Visibilidad 10 km o más

METAR: LFCK 300400Z AUTO 13006KT 9999 ///CB 20/19 Q1013

Hora: 06:21 (04:21 UTC)

Pronóstico

El informe se hizo hace 11 horas y 21 minutos, a las 17:00 UTC
Pronóstico válido del 29 a las 18 UTC al 30 a las 03 UTC
Viento 3 kt con dirección variable
Visibilidad 10 km o más
sin nubes por debajo de 1500 m y sin presencia de cumulonimbus.
Probabilidad 40% :
Temporalmente
del 29 a las 20 UTC al 30 a las 03 UTC
Escasas nubes a una altura de 5000 ft, Cumulonimbus.

TAF: LFCK 291700Z 2918/3003 VRB03KT CAVOK PROB40 TEMPO 2920/3003 FEW050CB

Observaciones y pronósticos meteorológicos de más de 4000 aeropuertos (mensajes METAR y TAF).

Los puntos amarillos y rojos representan las estaciones disponibles.

Ponga el ratón en el punto deseado para ver el nombre de la estación.

Haga clic para ver las observaciones y los pronósticos meteorológicos.

Para cambiar el mapa : haga clic en los botones verdes con una cruz de color negro para hacer un zoom, en el botón verde con un guión para alejar o en las flechas verdes para mapas adyacentes.


METAR-TAF: